createdAt,value
2018-11-06T00:01:14.326Z,100.00
2018-11-06T00:03:48.779Z,100.00
2018-11-06T00:06:18.242Z,100.00
2018-11-06T00:08:47.798Z,100.00
2018-11-06T00:11:17.251Z,100.00
2018-11-06T00:13:46.678Z,100.00
2018-11-06T00:16:16.158Z,100.00
2018-11-06T00:18:45.557Z,100.00
2018-11-06T00:21:14.951Z,100.00
2018-11-06T00:23:44.335Z,100.00
2018-11-06T00:26:13.699Z,100.00
2018-11-06T00:28:43.069Z,100.00
2018-11-06T00:31:12.550Z,100.00
2018-11-06T00:33:42.030Z,100.00
2018-11-06T00:36:11.438Z,100.00
2018-11-06T00:38:40.818Z,100.00
2018-11-06T00:41:10.192Z,100.00
2018-11-06T00:43:39.570Z,100.00
2018-11-06T00:46:08.960Z,100.00
2018-11-06T00:48:38.380Z,100.00
2018-11-06T00:51:07.834Z,100.00
2018-11-06T00:53:37.215Z,100.00
2018-11-06T00:56:06.582Z,100.00
2018-11-06T00:58:35.995Z,100.00
2018-11-06T01:01:05.523Z,100.00
2018-11-06T01:03:40.146Z,100.00
2018-11-06T01:06:09.560Z,100.00
2018-11-06T01:08:38.926Z,100.00
2018-11-06T01:11:08.325Z,100.00
2018-11-06T01:13:37.705Z,100.00
2018-11-06T01:16:07.418Z,100.00
2018-11-06T01:18:36.796Z,100.00
2018-11-06T01:21:06.502Z,100.00
2018-11-06T01:23:35.885Z,100.00
2018-11-06T01:26:05.448Z,100.00
2018-11-06T01:28:34.810Z,100.00
2018-11-06T01:31:04.203Z,100.00
2018-11-06T01:33:33.580Z,100.00
2018-11-06T01:36:03.018Z,100.00
2018-11-06T01:38:33.345Z,100.00
2018-11-06T01:41:02.723Z,100.00
2018-11-06T01:43:32.114Z,100.00
2018-11-06T01:46:01.510Z,100.00
2018-11-06T01:48:30.886Z,100.00
2018-11-06T01:51:00.293Z,100.00
2018-11-06T01:53:29.683Z,100.00
2018-11-06T01:55:59.066Z,100.00
2018-11-06T01:58:28.434Z,100.00
2018-11-06T02:00:57.918Z,100.00
2018-11-06T02:03:27.688Z,100.00
2018-11-06T02:05:57.066Z,100.00
2018-11-06T02:08:26.465Z,100.00
2018-11-06T02:10:55.822Z,100.00
2018-11-06T02:13:25.194Z,100.00
2018-11-06T02:15:54.582Z,100.00
2018-11-06T02:18:23.959Z,100.00
2018-11-06T02:20:53.359Z,100.00
2018-11-06T02:23:22.729Z,100.00
2018-11-06T02:25:52.189Z,100.00
2018-11-06T02:28:21.587Z,100.00
2018-11-06T02:30:50.967Z,100.00
2018-11-06T02:33:20.342Z,100.00
2018-11-06T02:35:49.731Z,100.00
2018-11-06T02:38:19.117Z,100.00
2018-11-06T02:40:48.499Z,100.00
2018-11-06T02:43:17.882Z,100.00
2018-11-06T02:45:47.246Z,100.00
2018-11-06T02:48:16.642Z,100.00
2018-11-06T02:50:46.037Z,100.00
2018-11-06T02:53:15.406Z,100.00
2018-11-06T02:55:44.840Z,100.00
2018-11-06T02:58:14.188Z,100.00
2018-11-06T03:00:43.550Z,100.00
2018-11-06T03:03:12.950Z,100.00
2018-11-06T03:05:42.334Z,100.00
2018-11-06T03:08:11.714Z,100.00
2018-11-06T03:10:41.098Z,100.00
2018-11-06T03:13:10.492Z,100.00
2018-11-06T03:15:39.866Z,100.00
2018-11-06T03:18:09.264Z,100.00
2018-11-06T03:20:38.671Z,100.00
2018-11-06T03:23:08.030Z,100.00
2018-11-06T03:25:37.418Z,100.00
2018-11-06T03:28:07.085Z,100.00
2018-11-06T03:30:36.472Z,100.00
2018-11-06T03:33:05.882Z,100.00
2018-11-06T03:35:35.245Z,100.00
2018-11-06T03:38:04.650Z,100.00
2018-11-06T03:40:34.018Z,100.00
2018-11-06T03:43:03.394Z,100.00
2018-11-06T03:45:32.783Z,100.00
2018-11-06T03:48:02.262Z,100.00
2018-11-06T03:50:31.634Z,100.00
2018-11-06T03:53:01.090Z,100.00
2018-11-06T03:55:30.462Z,100.00
2018-11-06T03:57:59.830Z,100.00
2018-11-06T04:00:29.219Z,100.00
2018-11-06T04:02:58.605Z,100.00
2018-11-06T04:05:27.977Z,100.00
2018-11-06T04:07:57.351Z,100.00
2018-11-06T04:10:27.770Z,100.00
2018-11-06T04:12:57.154Z,100.00
2018-11-06T04:15:27.792Z,100.00
2018-11-06T04:17:57.157Z,100.00
2018-11-06T04:20:27.935Z,100.00
2018-11-06T04:22:57.342Z,100.00
2018-11-06T04:25:27.782Z,100.00
2018-11-06T04:27:57.146Z,100.00
2018-11-06T04:30:27.778Z,100.00
2018-11-06T04:32:57.146Z,100.00
2018-11-06T04:35:27.762Z,100.00
2018-11-06T04:37:57.151Z,100.00
2018-11-06T04:40:27.766Z,100.00
2018-11-06T04:42:57.163Z,100.00
2018-11-06T04:45:27.762Z,100.00
2018-11-06T04:47:57.154Z,100.00
2018-11-06T04:50:27.845Z,100.00
2018-11-06T04:52:57.251Z,100.00
2018-11-06T04:55:27.999Z,100.00
2018-11-06T04:57:57.415Z,100.00
2018-11-06T05:00:27.807Z,100.00
2018-11-06T05:02:57.194Z,100.00
2018-11-06T05:05:27.814Z,100.00
2018-11-06T05:07:57.206Z,100.00
2018-11-06T05:10:27.806Z,100.00
2018-11-06T05:12:57.213Z,100.00
2018-11-06T05:15:27.826Z,100.00
2018-11-06T05:17:57.210Z,100.00
2018-11-06T05:20:27.916Z,100.00
2018-11-06T05:22:57.314Z,100.00
2018-11-06T05:25:27.991Z,100.00
2018-11-06T05:27:57.330Z,100.00
2018-11-06T05:30:27.953Z,100.00
2018-11-06T05:32:57.347Z,100.00
2018-11-06T05:35:27.865Z,100.00
2018-11-06T05:37:57.278Z,100.00
2018-11-06T05:40:44.751Z,100.00
2018-11-06T05:43:14.143Z,100.00
2018-11-06T05:45:43.658Z,100.00
2018-11-06T05:48:12.880Z,100.00
2018-11-06T05:50:42.354Z,100.00
2018-11-06T05:53:11.737Z,100.00
2018-11-06T05:55:41.258Z,100.00
2018-11-06T05:58:10.745Z,100.00
2018-11-06T06:00:40.580Z,100.00
2018-11-06T06:03:09.875Z,100.00
2018-11-06T06:05:39.238Z,100.00
2018-11-06T06:08:08.781Z,100.00
2018-11-06T06:10:38.178Z,100.00
2018-11-06T06:13:08.098Z,100.00
2018-11-06T06:15:37.503Z,100.00
2018-11-06T06:18:06.878Z,100.00
2018-11-06T06:20:36.282Z,100.00
2018-11-06T06:23:06.206Z,100.00
2018-11-06T06:25:35.646Z,100.00
2018-11-06T06:28:05.074Z,100.00
2018-11-06T06:30:34.478Z,100.00
2018-11-06T06:33:03.879Z,100.00
2018-11-06T06:35:33.263Z,100.00
2018-11-06T06:38:02.654Z,100.00
2018-11-06T06:40:32.134Z,100.00
2018-11-06T06:43:01.537Z,100.00
2018-11-06T06:45:30.940Z,100.00
2018-11-06T06:48:00.339Z,100.00
2018-11-06T06:50:29.748Z,100.00
2018-11-06T06:52:59.118Z,100.00
2018-11-06T06:55:28.487Z,100.00
2018-11-06T06:57:57.878Z,100.00
2018-11-06T07:00:28.146Z,100.00
2018-11-06T07:02:57.554Z,100.00
2018-11-06T07:05:28.054Z,100.00
2018-11-06T07:07:57.431Z,100.00
2018-11-06T07:10:28.061Z,100.00
2018-11-06T07:12:57.646Z,100.00
2018-11-06T07:15:28.167Z,100.00
2018-11-06T07:17:57.545Z,100.00
2018-11-06T07:20:28.266Z,100.00
2018-11-06T07:22:57.656Z,100.00
2018-11-06T07:25:28.080Z,100.00
2018-11-06T07:27:57.471Z,100.00
2018-11-06T07:30:28.080Z,100.00
2018-11-06T07:32:57.463Z,100.00
2018-11-06T07:35:28.186Z,100.00
2018-11-06T07:37:57.455Z,100.00
2018-11-06T07:40:28.114Z,100.00
2018-11-06T07:42:57.449Z,100.00
2018-11-06T07:45:28.039Z,100.00
2018-11-06T07:47:57.421Z,100.00
2018-11-06T07:50:28.092Z,100.00
2018-11-06T07:52:57.450Z,100.00
2018-11-06T07:55:28.080Z,100.00
2018-11-06T07:57:57.458Z,100.00
2018-11-06T08:00:28.060Z,100.00
2018-11-06T08:02:57.583Z,100.00
2018-11-06T08:05:28.196Z,100.00
2018-11-06T08:07:57.594Z,100.00
2018-11-06T08:10:28.126Z,100.00
2018-11-06T08:12:57.516Z,100.00
2018-11-06T08:15:28.130Z,100.00
2018-11-06T08:17:57.563Z,100.00
2018-11-06T08:20:28.329Z,100.00
2018-11-06T08:22:57.661Z,100.00
2018-11-06T08:25:28.261Z,100.00
2018-11-06T08:27:57.649Z,100.00
2018-11-06T08:30:28.146Z,100.00
2018-11-06T08:32:57.567Z,100.00
2018-11-06T08:35:28.172Z,100.00
2018-11-06T08:37:57.563Z,100.00
2018-11-06T08:40:28.155Z,100.00
2018-11-06T08:42:57.543Z,100.00
2018-11-06T08:45:28.140Z,100.00
2018-11-06T08:47:57.578Z,100.00
2018-11-06T08:50:28.158Z,100.00
2018-11-06T08:52:57.514Z,100.00
2018-11-06T08:55:28.128Z,100.00
2018-11-06T08:57:57.544Z,100.00
2018-11-06T09:00:28.152Z,100.00
2018-11-06T09:02:57.518Z,100.00
2018-11-06T09:05:28.155Z,100.00
2018-11-06T09:07:57.534Z,100.00
2018-11-06T09:10:28.154Z,100.00
2018-11-06T09:12:57.522Z,100.00
2018-11-06T09:15:28.156Z,100.00
2018-11-06T09:17:57.510Z,100.00
2018-11-06T09:20:28.384Z,100.00
2018-11-06T09:22:57.761Z,100.00
2018-11-06T09:25:28.222Z,100.00
2018-11-06T09:27:57.613Z,100.00
2018-11-06T09:30:28.244Z,100.00
2018-11-06T09:32:57.615Z,100.00
2018-11-06T09:35:28.249Z,100.00
2018-11-06T09:37:57.644Z,100.00
2018-11-06T09:42:57.622Z,100.00
2018-11-06T09:45:28.292Z,100.00
2018-11-06T09:47:57.650Z,100.00
2018-11-06T09:50:28.274Z,100.00
2018-11-06T09:52:57.630Z,100.00
2018-11-06T09:55:28.237Z,100.00
2018-11-06T09:57:57.634Z,100.00
2018-11-06T10:00:28.284Z,100.00
2018-11-06T10:02:57.694Z,100.00
2018-11-06T10:05:28.322Z,100.00
2018-11-06T10:07:57.848Z,100.00
2018-11-06T10:10:28.318Z,100.00
2018-11-06T10:12:57.708Z,100.00
2018-11-06T10:15:28.313Z,100.00
2018-11-06T10:17:57.714Z,100.00
2018-11-06T10:20:27.183Z,100.00
2018-11-06T10:22:56.551Z,100.00
2018-11-06T10:25:25.938Z,100.00
2018-11-06T10:27:55.318Z,100.00
2018-11-06T10:30:24.690Z,100.00
2018-11-06T10:32:54.070Z,100.00
2018-11-06T10:35:23.472Z,100.00
2018-11-06T10:37:52.866Z,100.00
2018-11-06T10:40:22.861Z,100.00
2018-11-06T10:42:52.346Z,100.00
2018-11-06T10:45:21.722Z,100.00
2018-11-06T10:47:51.114Z,99.65
2018-11-06T10:50:20.565Z,99.28
2018-11-06T10:52:50.191Z,99.59
2018-11-06T10:55:19.565Z,98.05
2018-11-06T10:57:48.939Z,98.11
2018-11-06T11:00:23.522Z,98.71
2018-11-06T11:02:58.294Z,98.37
2018-11-06T11:05:28.975Z,97.87
2018-11-06T11:07:58.372Z,97.76
2018-11-06T11:10:27.840Z,97.38
2018-11-06T11:12:57.184Z,96.42
2018-11-06T11:15:26.574Z,96.12
2018-11-06T11:17:56.054Z,95.56
2018-11-06T11:20:25.670Z,96.35
2018-11-06T11:22:55.068Z,96.10
2018-11-06T11:25:24.470Z,95.44
2018-11-06T11:27:53.826Z,93.28
2018-11-06T11:30:23.222Z,94.32
2018-11-06T11:32:52.618Z,94.02
2018-11-06T11:35:22.028Z,93.93
2018-11-06T11:37:51.480Z,92.64
2018-11-06T11:40:20.792Z,92.41
2018-11-06T11:42:50.179Z,92.81
2018-11-06T11:45:19.567Z,91.72
2018-11-06T11:47:48.995Z,91.20
2018-11-06T11:50:18.395Z,90.49
2018-11-06T11:52:47.779Z,90.28
2018-11-06T11:55:17.178Z,89.51
2018-11-06T11:57:46.554Z,89.80
2018-11-06T12:00:18.406Z,89.74
2018-11-06T12:02:47.810Z,90.04
2018-11-06T12:05:17.194Z,90.25
2018-11-06T12:07:46.586Z,91.31
2018-11-06T12:10:15.954Z,90.31
2018-11-06T12:12:45.354Z,87.99
2018-11-06T12:15:15.945Z,88.12
2018-11-06T12:17:46.256Z,85.15
2018-11-06T12:20:16.076Z,83.90
2018-11-06T12:22:45.492Z,82.33
2018-11-06T12:25:15.301Z,83.43
2018-11-06T12:27:44.577Z,83.04
2018-11-06T12:30:15.634Z,82.81
2018-11-06T12:32:45.112Z,83.03
2018-11-06T12:35:14.950Z,84.82
2018-11-06T12:37:44.358Z,84.62
2018-11-06T12:40:14.364Z,84.46
2018-11-06T12:42:44.026Z,85.11
2018-11-06T12:45:14.915Z,85.56
2018-11-06T12:47:44.838Z,85.24
2018-11-06T12:50:14.325Z,85.31
2018-11-06T12:52:43.728Z,84.95
2018-11-06T12:55:14.331Z,85.20
2018-11-06T12:57:43.756Z,85.36
2018-11-06T13:00:15.387Z,85.72
2018-11-06T13:02:44.787Z,85.81
2018-11-06T13:05:14.205Z,85.68
2018-11-06T13:07:44.463Z,85.21
2018-11-06T13:10:14.566Z,85.66
2018-11-06T13:12:44.306Z,85.18
2018-11-06T13:15:15.455Z,86.35
2018-11-06T13:17:43.280Z,86.15
2018-11-06T13:20:14.054Z,86.65
2018-11-06T13:22:44.208Z,86.17
2018-11-06T13:25:13.759Z,85.46
2018-11-06T13:27:43.400Z,86.02
2018-11-06T13:30:17.654Z,87.28
2018-11-06T13:32:47.690Z,87.04
2018-11-06T13:35:17.105Z,87.56
2018-11-06T13:37:46.490Z,87.84
2018-11-06T13:40:16.629Z,87.58
2018-11-06T13:42:46.610Z,88.19
2018-11-06T13:45:17.670Z,88.78
2018-11-06T13:47:46.993Z,88.97
2018-11-06T13:50:16.381Z,89.49
2018-11-06T13:52:45.751Z,89.78
2018-11-06T13:55:15.917Z,89.42
2018-11-06T13:57:46.137Z,89.45
2018-11-06T14:00:18.638Z,89.54
2018-11-06T14:02:48.025Z,89.43
2018-11-06T14:05:17.619Z,89.91
2018-11-06T14:07:47.042Z,89.29
2018-11-06T14:10:16.433Z,91.73
2018-11-06T14:12:46.138Z,92.20
2018-11-06T14:15:15.529Z,92.69
2018-11-06T14:17:44.921Z,94.40
2018-11-06T14:20:15.481Z,94.80
2018-11-06T14:22:45.290Z,95.10
2018-11-06T14:25:14.894Z,94.35
2018-11-06T14:27:44.277Z,94.66
2018-11-06T14:30:16.578Z,94.63
2018-11-06T14:32:46.490Z,94.22
2018-11-06T14:35:16.907Z,94.54
2018-11-06T14:37:46.944Z,94.01
2018-11-06T14:40:16.836Z,93.37
2018-11-06T14:42:46.600Z,92.84
2018-11-06T14:45:17.188Z,93.18
2018-11-06T14:47:46.609Z,92.29
2018-11-06T14:50:15.991Z,92.02
2018-11-06T14:52:45.371Z,91.46
2018-11-06T14:55:15.618Z,92.31
2018-11-06T14:57:44.998Z,91.89
2018-11-06T15:00:20.054Z,95.29
2018-11-06T15:02:52.741Z,94.94
2018-11-06T15:05:22.777Z,94.95
2018-11-06T15:07:52.140Z,94.35
2018-11-06T15:10:21.505Z,94.95
2018-11-06T15:12:50.981Z,93.94
2018-11-06T15:15:20.286Z,93.43
2018-11-06T15:17:49.675Z,93.79
2018-11-06T15:20:22.034Z,94.17
2018-11-06T15:22:51.434Z,94.09
2018-11-06T15:25:20.825Z,95.44
2018-11-06T15:27:50.218Z,95.39
2018-11-06T15:30:19.960Z,95.60
2018-11-06T15:32:49.464Z,95.55
2018-11-06T15:35:20.205Z,95.63
2018-11-06T15:37:49.625Z,95.77
2018-11-06T15:40:20.129Z,95.91
2018-11-06T15:42:49.562Z,95.87
2018-11-06T15:45:19.714Z,96.73
2018-11-06T15:47:49.365Z,96.96
2018-11-06T15:50:19.788Z,96.99
2018-11-06T15:52:50.101Z,100.00
2018-11-06T15:55:19.531Z,100.00
2018-11-06T15:57:48.911Z,100.00
2018-11-06T16:00:20.985Z,100.00
2018-11-06T16:02:50.478Z,100.00
2018-11-06T16:05:19.898Z,99.67
2018-11-06T16:07:49.899Z,100.00
2018-11-06T16:10:21.470Z,100.00
2018-11-06T16:12:50.942Z,100.00
2018-11-06T16:15:20.439Z,100.00
2018-11-06T16:17:49.810Z,100.00
2018-11-06T16:20:20.411Z,100.00
2018-11-06T16:22:49.894Z,100.00
2018-11-06T16:25:19.950Z,100.00
2018-11-06T16:27:49.429Z,100.00
2018-11-06T16:30:20.172Z,100.00
2018-11-06T16:32:49.633Z,100.00
2018-11-06T16:35:23.222Z,100.00
2018-11-06T16:37:52.989Z,100.00
2018-11-06T16:40:22.434Z,100.00
2018-11-06T16:42:51.800Z,100.00
2018-11-06T16:45:22.938Z,100.00
2018-11-06T16:47:52.947Z,100.00
2018-11-06T16:50:22.769Z,100.00
2018-11-06T16:52:52.168Z,100.00
2018-11-06T16:55:21.693Z,100.00
2018-11-06T16:57:51.106Z,100.00
2018-11-06T17:00:22.164Z,100.00
2018-11-06T17:02:51.634Z,100.00
2018-11-06T17:05:21.017Z,100.00
2018-11-06T17:07:50.745Z,100.00
2018-11-06T17:10:20.640Z,100.00
2018-11-06T17:12:50.033Z,100.00
2018-11-06T17:15:20.770Z,100.00
2018-11-06T17:17:51.387Z,100.00
2018-11-06T17:20:21.338Z,100.00
2018-11-06T17:22:50.773Z,100.00
2018-11-06T17:25:21.526Z,100.00
2018-11-06T17:27:51.139Z,100.00
2018-11-06T17:30:20.838Z,100.00
2018-11-06T17:32:50.426Z,100.00
2018-11-06T17:35:20.729Z,100.00
2018-11-06T17:37:50.394Z,100.00
2018-11-06T17:40:20.980Z,100.00
2018-11-06T17:42:50.510Z,100.00
2018-11-06T17:45:21.471Z,100.00
2018-11-06T17:47:51.029Z,100.00
2018-11-06T17:50:20.671Z,100.00
2018-11-06T17:52:50.276Z,100.00
2018-11-06T17:55:20.888Z,100.00
2018-11-06T17:57:50.280Z,100.00
2018-11-06T18:00:22.831Z,100.00
2018-11-06T18:02:52.440Z,100.00
2018-11-06T18:05:23.903Z,100.00
2018-11-06T18:07:53.563Z,100.00
2018-11-06T18:10:23.275Z,100.00
2018-11-06T18:12:52.958Z,100.00
2018-11-06T18:15:22.661Z,100.00
2018-11-06T18:17:52.445Z,100.00
2018-11-06T18:20:21.912Z,100.00
2018-11-06T18:22:51.488Z,100.00
2018-11-06T18:25:21.061Z,100.00
2018-11-06T18:27:50.797Z,100.00
2018-11-06T18:30:20.349Z,100.00
2018-11-06T18:32:49.908Z,100.00
2018-11-06T18:35:19.807Z,100.00
2018-11-06T18:37:49.366Z,100.00
2018-11-06T18:40:20.035Z,100.00
2018-11-06T18:42:50.571Z,100.00
2018-11-06T18:45:20.883Z,100.00
2018-11-06T18:47:50.761Z,100.00
2018-11-06T18:50:20.673Z,100.00
2018-11-06T18:52:51.053Z,100.00
2018-11-06T18:55:20.706Z,100.00
2018-11-06T18:57:50.815Z,100.00
2018-11-06T19:00:21.719Z,100.00
2018-11-06T19:02:52.408Z,100.00
2018-11-06T19:05:22.849Z,100.00
2018-11-06T19:07:52.411Z,100.00
2018-11-06T19:10:22.256Z,100.00
2018-11-06T19:12:51.760Z,100.00
2018-11-06T19:15:23.354Z,100.00
2018-11-06T19:17:52.926Z,100.00
2018-11-06T19:20:22.803Z,100.00
2018-11-06T19:22:53.285Z,100.00
2018-11-06T19:25:23.539Z,100.00
2018-11-06T19:27:54.345Z,100.00
2018-11-06T19:30:25.959Z,100.00
2018-11-06T19:32:58.232Z,100.00
2018-11-06T19:35:29.516Z,100.00
2018-11-06T19:38:01.018Z,100.00
2018-11-06T19:40:33.362Z,100.00
2018-11-06T19:43:06.052Z,100.00
2018-11-06T19:45:38.451Z,100.00
2018-11-06T19:48:10.644Z,100.00
2018-11-06T19:50:42.991Z,100.00
2018-11-06T19:53:15.228Z,100.00
2018-11-06T19:55:47.549Z,100.00
2018-11-06T19:58:20.212Z,100.00
2018-11-06T20:00:52.848Z,100.00
2018-11-06T20:03:25.344Z,100.00
2018-11-06T20:05:58.050Z,100.00
2018-11-06T20:08:31.318Z,100.00
2018-11-06T20:11:04.340Z,100.00
2018-11-06T20:13:37.206Z,100.00
2018-11-06T20:16:09.788Z,100.00
2018-11-06T20:18:42.386Z,100.00
2018-11-06T20:21:14.870Z,100.00
2018-11-06T20:23:47.513Z,100.00
2018-11-06T20:26:20.291Z,100.00
2018-11-06T20:28:52.991Z,100.00
2018-11-06T20:31:25.864Z,100.00
2018-11-06T20:33:58.299Z,100.00
2018-11-06T20:36:30.978Z,100.00
2018-11-06T20:39:03.618Z,100.00
2018-11-06T20:41:36.492Z,100.00
2018-11-06T20:44:08.853Z,100.00
2018-11-06T20:46:41.338Z,100.00
2018-11-06T20:49:14.110Z,100.00
2018-11-06T20:51:46.607Z,100.00
2018-11-06T20:54:19.353Z,100.00
2018-11-06T20:56:51.859Z,100.00
2018-11-06T20:59:24.718Z,100.00
2018-11-06T21:01:57.676Z,100.00
2018-11-06T21:04:30.022Z,100.00
2018-11-06T21:07:02.353Z,100.00
2018-11-06T21:09:34.785Z,100.00
2018-11-06T21:12:07.139Z,100.00
2018-11-06T21:14:39.612Z,100.00
2018-11-06T21:17:12.036Z,100.00
2018-11-06T21:19:44.481Z,100.00
2018-11-06T21:22:16.806Z,100.00
2018-11-06T21:24:49.254Z,100.00
2018-11-06T21:27:21.732Z,100.00
2018-11-06T21:29:53.979Z,100.00
2018-11-06T21:32:25.666Z,100.00
2018-11-06T21:34:56.476Z,100.00
2018-11-06T21:37:27.135Z,100.00
2018-11-06T21:39:57.123Z,100.00
2018-11-06T21:42:26.653Z,100.00
2018-11-06T21:44:56.161Z,100.00
2018-11-06T21:47:26.785Z,100.00
2018-11-06T21:49:56.493Z,100.00
2018-11-06T21:52:25.915Z,100.00
2018-11-06T21:54:55.386Z,100.00
2018-11-06T21:57:24.772Z,100.00
2018-11-06T21:59:54.139Z,100.00
2018-11-06T22:02:23.607Z,100.00
2018-11-06T22:04:52.990Z,100.00
2018-11-06T22:07:22.346Z,100.00
2018-11-06T22:09:51.784Z,100.00
2018-11-06T22:12:21.184Z,100.00
2018-11-06T22:14:50.524Z,100.00
2018-11-06T22:17:19.913Z,100.00
2018-11-06T22:19:49.289Z,100.00
2018-11-06T22:22:18.676Z,100.00
2018-11-06T22:24:48.062Z,100.00
2018-11-06T22:27:17.543Z,100.00
2018-11-06T22:29:47.166Z,100.00
2018-11-06T22:32:16.737Z,100.00
2018-11-06T22:34:46.269Z,100.00
2018-11-06T22:37:15.971Z,100.00
2018-11-06T22:39:45.619Z,100.00
2018-11-06T22:42:15.308Z,100.00
2018-11-06T22:44:44.842Z,100.00
2018-11-06T22:47:14.438Z,100.00
2018-11-06T22:49:44.143Z,100.00
2018-11-06T22:52:13.718Z,100.00
2018-11-06T22:54:43.338Z,100.00
2018-11-06T22:57:12.948Z,100.00
2018-11-06T22:59:42.506Z,100.00
2018-11-06T23:02:12.053Z,100.00
2018-11-06T23:04:41.692Z,100.00
2018-11-06T23:08:14.216Z,100.00
2018-11-06T23:10:43.855Z,100.00
2018-11-06T23:13:13.352Z,100.00
2018-11-06T23:15:42.878Z,100.00
2018-11-06T23:18:12.419Z,100.00
2018-11-06T23:20:41.977Z,100.00
2018-11-06T23:23:11.373Z,100.00
2018-11-06T23:25:41.007Z,100.00
2018-11-06T23:28:10.444Z,100.00
2018-11-06T23:30:39.976Z,100.00
2018-11-06T23:33:09.634Z,100.00
2018-11-06T23:35:39.180Z,100.00
2018-11-06T23:38:08.758Z,100.00
2018-11-06T23:40:38.298Z,100.00
2018-11-06T23:43:07.897Z,100.00
2018-11-06T23:45:37.454Z,100.00
2018-11-06T23:48:07.219Z,100.00
2018-11-06T23:50:36.934Z,100.00
2018-11-06T23:53:06.550Z,100.00
2018-11-06T23:55:36.219Z,100.00
2018-11-06T23:58:05.886Z,100.00
